Aviation Digital Data Service (ADDS)

Output produced by TAFs form (2146 UTC 25 April 2015)
found at http://www.aviationweather.gov/adds/tafs/
 
KPOU 251723Z 2518/2618 30009KT P6SM SCT050 
     FM252100 32007KT P6SM FEW050 
     FM260000 VRB03KT P6SM SKC 
     FM261200 28006KT P6SM FEW060